createdAt,value
2017-09-24T00:00:37.637Z,999
2017-09-24T00:01:47.591Z,998.93
2017-09-24T00:02:57.862Z,998.94
2017-09-24T00:04:08.140Z,998.93
2017-09-24T00:05:18.420Z,998.93
2017-09-24T00:06:28.697Z,998.91
2017-09-24T00:07:38.328Z,998.9
2017-09-24T00:08:48.288Z,998.92
2017-09-24T00:09:58.242Z,998.92
2017-09-24T00:11:08.199Z,998.92
2017-09-24T00:12:18.474Z,998.93
2017-09-24T00:13:28.461Z,998.97
2017-09-24T00:14:38.416Z,998.88
2017-09-24T00:15:48.077Z,998.94
2017-09-24T00:16:58.370Z,998.94
2017-09-24T00:18:08.012Z,998.93
2017-09-24T00:19:17.645Z,998.98
2017-09-24T00:20:27.922Z,998.94
2017-09-24T00:21:38.203Z,998.93
2017-09-24T00:22:48.477Z,999
2017-09-24T00:23:58.749Z,998.95
2017-09-24T00:25:09.019Z,998.96
2017-09-24T00:26:18.978Z,998.93
2017-09-24T00:27:29.262Z,999
2017-09-24T00:28:39.217Z,998.98
2017-09-24T00:29:49.173Z,998.96
2017-09-24T00:30:59.127Z,999.02
2017-09-24T00:32:09.085Z,999
2017-09-24T00:33:19.038Z,999.01
2017-09-24T00:34:28.989Z,999.05
2017-09-24T00:35:39.266Z,999.03
2017-09-24T00:36:48.898Z,999.05
2017-09-24T00:37:58.529Z,999.05
2017-09-24T00:39:08.485Z,999
2017-09-24T00:40:18.438Z,999
2017-09-24T00:41:28.398Z,999.01
2017-09-24T00:42:38.678Z,998.98
2017-09-24T00:43:48.988Z,998.99
2017-09-24T00:44:58.945Z,998.98
2017-09-24T00:46:08.584Z,998.97
2017-09-24T00:47:18.576Z,998.93
2017-09-24T00:48:28.854Z,998.92
2017-09-24T00:49:39.130Z,998.88
2017-09-24T00:50:49.414Z,998.85
2017-09-24T00:51:59.367Z,998.87
2017-09-24T00:53:09.648Z,998.84
2017-09-24T00:54:19.936Z,998.82
2017-09-24T00:55:30.214Z,998.8
2017-09-24T00:56:40.490Z,998.77
2017-09-24T00:57:50.119Z,998.82
2017-09-24T00:59:00.399Z,998.82
2017-09-24T01:00:10.669Z,998.8
2017-09-24T01:01:20.941Z,998.8
2017-09-24T01:02:30.907Z,998.8
2017-09-24T01:03:41.187Z,998.78
2017-09-24T01:04:51.140Z,998.75
2017-09-24T01:06:00.773Z,998.72
2017-09-24T01:07:10.412Z,998.78
2017-09-24T01:08:20.692Z,998.75
2017-09-24T01:09:30.641Z,998.75
2017-09-24T01:10:40.601Z,998.77
2017-09-24T01:11:50.927Z,998.78
2017-09-24T01:13:01.207Z,998.85
2017-09-24T01:14:11.168Z,998.82
2017-09-24T01:15:21.474Z,998.87
2017-09-24T01:16:31.432Z,998.82
2017-09-24T01:17:41.705Z,998.83
2017-09-24T01:18:51.659Z,998.81
2017-09-24T01:20:01.545Z,998.82
2017-09-24T01:21:11.182Z,998.85
2017-09-24T01:22:21.455Z,998.8
2017-09-24T01:23:31.727Z,998.83
2017-09-24T01:24:41.688Z,998.75
2017-09-24T01:25:51.321Z,998.8
2017-09-24T01:27:01.600Z,998.77
2017-09-24T01:28:11.881Z,998.75
2017-09-24T01:29:22.150Z,998.68
2017-09-24T01:30:32.429Z,998.7
2017-09-24T01:31:42.747Z,998.71
2017-09-24T01:32:52.390Z,998.73
2017-09-24T01:34:02.346Z,998.71
2017-09-24T01:35:12.626Z,998.71
2017-09-24T01:36:22.910Z,998.73
2017-09-24T01:37:32.867Z,998.7
2017-09-24T01:38:43.146Z,998.71
2017-09-24T01:39:53.097Z,998.68
2017-09-24T01:41:03.371Z,998.72
2017-09-24T01:42:13.006Z,998.72
2017-09-24T01:43:23.280Z,998.71
2017-09-24T01:44:33.238Z,998.72
2017-09-24T01:45:43.519Z,998.75
2017-09-24T01:46:53.794Z,998.8
2017-09-24T01:48:03.747Z,998.78
2017-09-24T01:49:14.021Z,998.79
2017-09-24T01:50:24.298Z,998.82
2017-09-24T01:51:34.576Z,998.82
2017-09-24T01:52:44.855Z,998.82
2017-09-24T01:53:54.811Z,998.81
2017-09-24T01:55:04.768Z,998.78
2017-09-24T01:56:15.042Z,998.73
2017-09-24T01:57:25.316Z,998.73
2017-09-24T01:58:35.273Z,998.75
2017-09-24T01:59:45.229Z,998.73
2017-09-24T02:00:55.511Z,998.74
2017-09-24T02:02:05.144Z,998.74
2017-09-24T02:03:14.778Z,998.73
2017-09-24T02:04:24.733Z,998.73
2017-09-24T02:05:34.683Z,998.7
2017-09-24T02:06:45.110Z,998.71
2017-09-24T02:07:55.386Z,998.75
2017-09-24T02:09:05.655Z,998.79
2017-09-24T02:10:15.932Z,998.79
2017-09-24T02:11:25.560Z,998.82
2017-09-24T02:12:39.844Z,998.8
2017-09-24T02:13:50.118Z,998.83
2017-09-24T02:15:00.399Z,998.8
2017-09-24T02:16:10.673Z,998.75
2017-09-24T02:17:20.960Z,998.75
2017-09-24T02:18:31.491Z,998.78
2017-09-24T02:19:41.447Z,998.75
2017-09-24T02:20:51.403Z,998.79
2017-09-24T02:22:01.358Z,998.79
2017-09-24T02:23:11.632Z,998.8
2017-09-24T02:24:24.014Z,998.78
2017-09-24T02:25:34.308Z,998.77
2017-09-24T02:26:44.262Z,998.82
2017-09-24T02:27:54.540Z,998.83
2017-09-24T02:29:04.494Z,998.82
2017-09-24T02:30:14.772Z,998.79
2017-09-24T02:31:25.062Z,998.75
2017-09-24T02:32:35.023Z,998.72
2017-09-24T02:33:44.986Z,998.7
2017-09-24T02:34:54.943Z,998.7
2017-09-24T02:36:05.243Z,998.7
2017-09-24T02:37:15.207Z,998.68
2017-09-24T02:38:25.485Z,998.78
2017-09-24T02:39:35.769Z,998.75
2017-09-24T02:40:45.722Z,998.77
2017-09-24T02:41:56.009Z,998.77
2017-09-24T02:43:05.971Z,998.76
2017-09-24T02:44:16.256Z,998.8
2017-09-24T02:45:26.216Z,998.83
2017-09-24T02:46:36.487Z,998.81
2017-09-24T02:47:46.446Z,998.78
2017-09-24T02:48:56.407Z,998.77
2017-09-24T02:50:06.691Z,998.79
2017-09-24T02:51:16.650Z,998.8
2017-09-24T02:52:26.928Z,998.8
2017-09-24T02:53:36.892Z,998.81
2017-09-24T02:54:46.521Z,998.85
2017-09-24T02:55:56.805Z,998.84
2017-09-24T02:57:06.757Z,998.85
2017-09-24T02:58:17.034Z,998.87
2017-09-24T02:59:27.309Z,998.86
2017-09-24T03:00:37.264Z,998.85
2017-09-24T03:01:47.547Z,998.86
2017-09-24T03:02:57.818Z,998.84
2017-09-24T03:04:08.103Z,998.83
2017-09-24T03:05:17.411Z,998.8
2017-09-24T03:06:27.366Z,998.77
2017-09-24T03:07:37.646Z,998.78
2017-09-24T03:08:47.607Z,998.81
2017-09-24T03:09:57.889Z,998.82
2017-09-24T03:11:08.168Z,998.85
2017-09-24T03:12:17.799Z,998.81
2017-09-24T03:13:27.755Z,998.88
2017-09-24T03:14:38.034Z,998.89
2017-09-24T03:15:47.993Z,998.89
2017-09-24T03:16:58.288Z,998.86
2017-09-24T03:18:08.278Z,998.89
2017-09-24T03:19:18.235Z,998.88
2017-09-24T03:20:28.512Z,998.89
2017-09-24T03:21:38.788Z,998.86
2017-09-24T03:22:48.425Z,998.89
2017-09-24T03:23:58.704Z,998.9
2017-09-24T03:25:08.660Z,998.88
2017-09-24T03:26:18.292Z,998.88
2017-09-24T03:27:28.569Z,998.9
2017-09-24T03:28:38.838Z,998.88
2017-09-24T03:29:49.106Z,998.93
2017-09-24T03:30:59.077Z,998.93
2017-09-24T03:32:09.037Z,998.9
2017-09-24T03:33:18.991Z,998.89
2017-09-24T03:34:29.271Z,998.9
2017-09-24T03:35:39.552Z,998.88
2017-09-24T03:36:49.185Z,998.92
2017-09-24T03:37:59.468Z,998.95
2017-09-24T03:39:09.428Z,998.95
2017-09-24T03:40:19.376Z,999
2017-09-24T03:41:29.660Z,999.01
2017-09-24T03:42:39.934Z,999.04
2017-09-24T03:43:49.893Z,999.05
2017-09-24T03:45:00.171Z,999.04
2017-09-24T03:46:10.126Z,999.03
2017-09-24T03:47:20.412Z,999.08
2017-09-24T03:48:30.362Z,999.08
2017-09-24T03:49:40.320Z,999.06
2017-09-24T03:50:50.278Z,999.08
2017-09-24T03:52:00.554Z,999.08
2017-09-24T03:53:10.188Z,999.05
2017-09-24T03:54:20.145Z,999.01
2017-09-24T03:55:30.420Z,998.99
2017-09-24T03:56:40.375Z,999.01
2017-09-24T03:57:49.696Z,999
2017-09-24T03:58:59.657Z,998.97
2017-09-24T04:00:09.930Z,998.98
2017-09-24T04:01:19.572Z,998.98
2017-09-24T04:02:29.880Z,999.03
2017-09-24T04:03:40.150Z,999.03
2017-09-24T04:04:49.790Z,999
2017-09-24T04:05:59.744Z,999.02
2017-09-24T04:07:09.412Z,999.03
2017-09-24T04:08:19.367Z,998.99
2017-09-24T04:09:29.640Z,999
2017-09-24T04:10:39.594Z,998.94
2017-09-24T04:11:49.233Z,998.96
2017-09-24T04:12:59.187Z,998.93
2017-09-24T04:14:09.470Z,998.92
2017-09-24T04:15:19.422Z,998.91
2017-09-24T04:16:29.377Z,998.93
2017-09-24T04:17:39.647Z,998.91
2017-09-24T04:18:49.924Z,998.89
2017-09-24T04:19:59.879Z,998.9
2017-09-24T04:21:10.151Z,998.9
2017-09-24T04:22:20.423Z,998.93
2017-09-24T04:23:30.372Z,998.92
2017-09-24T04:24:40.001Z,998.91
2017-09-24T04:25:50.287Z,998.86
2017-09-24T04:27:00.568Z,998.96
2017-09-24T04:28:10.849Z,998.9
2017-09-24T04:29:20.838Z,998.91
2017-09-24T04:30:30.797Z,998.91
2017-09-24T04:31:41.081Z,998.95
2017-09-24T04:32:51.041Z,998.94
2017-09-24T04:34:01.321Z,998.95
2017-09-24T04:35:11.590Z,998.94
2017-09-24T04:36:21.862Z,998.96
2017-09-24T04:37:31.495Z,998.94
2017-09-24T04:38:41.448Z,998.97
2017-09-24T04:39:51.754Z,998.96
2017-09-24T04:41:01.063Z,998.97
2017-09-24T04:42:11.341Z,999.02
2017-09-24T04:43:21.611Z,999.04
2017-09-24T04:44:31.569Z,999.09
2017-09-24T04:45:41.839Z,999.05
2017-09-24T04:46:51.786Z,999.06
2017-09-24T04:48:01.422Z,999.05
2017-09-24T04:49:11.401Z,999.1
2017-09-24T04:50:21.361Z,999.12
2017-09-24T04:51:31.640Z,999.14
2017-09-24T04:52:41.916Z,999.18
2017-09-24T04:53:51.872Z,999.16
2017-09-24T04:55:01.514Z,999.18
2017-09-24T04:56:11.470Z,999.19
2017-09-24T04:57:21.423Z,999.19
2017-09-24T04:58:31.694Z,999.24
2017-09-24T04:59:41.974Z,999.24
2017-09-24T05:00:51.606Z,999.31
2017-09-24T05:02:01.888Z,999.33
2017-09-24T05:03:11.521Z,999.3
2017-09-24T05:04:21.492Z,999.29
2017-09-24T05:05:31.450Z,999.35
2017-09-24T05:06:41.406Z,999.32
2017-09-24T05:07:51.680Z,999.37
2017-09-24T05:09:01.958Z,999.37
2017-09-24T05:10:11.910Z,999.39
2017-09-24T05:11:21.864Z,999.37
2017-09-24T05:12:31.815Z,999.41
2017-09-24T05:13:42.090Z,999.38
2017-09-24T05:14:52.360Z,999.44
2017-09-24T05:16:02.313Z,999.46
2017-09-24T05:17:12.600Z,999.47
2017-09-24T05:18:22.873Z,999.53
2017-09-24T05:19:33.180Z,999.45
2017-09-24T05:20:43.478Z,999.49
2017-09-24T05:21:53.435Z,999.45
2017-09-24T05:23:03.391Z,999.48
2017-09-24T05:24:13.662Z,999.52
2017-09-24T05:25:23.944Z,999.56
2017-09-24T05:26:34.217Z,999.57
2017-09-24T05:27:43.855Z,999.64
2017-09-24T05:28:53.804Z,999.58
2017-09-24T05:30:04.110Z,999.59
2017-09-24T05:31:14.400Z,999.59
2017-09-24T05:32:24.398Z,999.57
2017-09-24T05:33:34.688Z,999.58
2017-09-24T05:34:44.325Z,999.56
2017-09-24T05:35:53.961Z,999.61
2017-09-24T05:37:03.917Z,999.62
2017-09-24T05:38:14.219Z,999.6
2017-09-24T05:39:24.498Z,999.6
2017-09-24T05:40:34.780Z,999.57
2017-09-24T05:41:45.053Z,999.59
2017-09-24T05:42:55.009Z,999.56
2017-09-24T05:44:05.281Z,999.6
2017-09-24T05:45:14.927Z,999.6
2017-09-24T05:46:25.212Z,999.61
2017-09-24T05:47:35.167Z,999.6
2017-09-24T05:48:45.121Z,999.64
2017-09-24T05:49:55.075Z,999.65
2017-09-24T05:51:05.027Z,999.61
2017-09-24T05:52:15.309Z,999.66
2017-09-24T05:53:25.587Z,999.68
2017-09-24T05:54:35.862Z,999.67
2017-09-24T05:55:45.837Z,999.68
2017-09-24T05:56:55.791Z,999.61
2017-09-24T05:58:05.105Z,999.64
2017-09-24T05:59:15.383Z,999.65
2017-09-24T06:00:25.656Z,999.68
2017-09-24T06:01:35.629Z,999.65
2017-09-24T06:02:45.908Z,999.65
2017-09-24T06:03:55.866Z,999.73
2017-09-24T06:05:05.820Z,999.71
2017-09-24T06:06:15.774Z,999.69
2017-09-24T06:07:26.050Z,999.71
2017-09-24T06:08:36.006Z,999.73
2017-09-24T06:09:46.285Z,999.71
2017-09-24T06:10:56.563Z,999.67
2017-09-24T06:12:06.196Z,999.67
2017-09-24T06:13:16.471Z,999.66
2017-09-24T06:14:26.746Z,999.7
2017-09-24T06:15:36.700Z,999.71
2017-09-24T06:16:46.332Z,999.76
2017-09-24T06:17:56.283Z,999.74
2017-09-24T06:19:06.238Z,999.73
2017-09-24T06:20:16.519Z,999.76
2017-09-24T06:21:26.800Z,999.78
2017-09-24T06:22:36.755Z,999.79
2017-09-24T06:23:47.033Z,999.81
2017-09-24T06:24:56.982Z,999.74
2017-09-24T06:26:07.277Z,999.79
2017-09-24T06:27:17.556Z,999.85
2017-09-24T06:28:27.829Z,999.89
2017-09-24T06:29:38.109Z,999.87
2017-09-24T06:30:48.095Z,999.88
2017-09-24T06:31:58.056Z,999.91
2017-09-24T06:33:08.010Z,999.87
2017-09-24T06:34:17.966Z,999.89
2017-09-24T06:35:28.245Z,999.83
2017-09-24T06:36:38.206Z,999.8
2017-09-24T06:37:47.840Z,999.82
2017-09-24T06:38:57.478Z,999.78
2017-09-24T06:40:07.751Z,999.83
2017-09-24T06:41:18.026Z,999.83
2017-09-24T06:42:28.309Z,999.81
2017-09-24T06:43:38.584Z,999.75
2017-09-24T06:44:48.543Z,999.78
2017-09-24T06:45:58.837Z,999.8
2017-09-24T06:47:08.146Z,999.81
2017-09-24T06:48:18.103Z,999.76
2017-09-24T06:49:28.058Z,999.75
2017-09-24T06:50:38.331Z,999.74
2017-09-24T06:51:47.963Z,999.77
2017-09-24T06:52:57.920Z,999.76
2017-09-24T06:54:08.197Z,999.79
2017-09-24T06:55:18.152Z,999.75
2017-09-24T06:56:28.111Z,999.73
2017-09-24T06:57:38.389Z,999.74
2017-09-24T06:58:48.663Z,999.73
2017-09-24T06:59:58.942Z,999.74
2017-09-24T07:01:08.907Z,999.8
2017-09-24T07:02:19.189Z,999.82
2017-09-24T07:03:28.819Z,999.89
2017-09-24T07:04:39.099Z,999.85
2017-09-24T07:05:49.054Z,999.91
2017-09-24T07:06:59.331Z,999.88
2017-09-24T07:08:09.605Z,999.94
2017-09-24T07:09:19.880Z,999.92
2017-09-24T07:10:30.158Z,999.94
2017-09-24T07:11:40.144Z,999.9
2017-09-24T07:12:50.099Z,999.92
2017-09-24T07:14:00.059Z,999.92
2017-09-24T07:15:10.346Z,999.97
2017-09-24T07:16:19.987Z,999.95
2017-09-24T07:17:30.265Z,1000
2017-09-24T07:18:40.222Z,1000.04
2017-09-24T07:19:50.179Z,1000.01
2017-09-24T07:21:00.140Z,1000.07
2017-09-24T07:22:10.415Z,1000.09
2017-09-24T07:23:20.697Z,1000.14
2017-09-24T07:24:31.012Z,1000.14
2017-09-24T07:25:40.974Z,1000.11
2017-09-24T07:26:51.258Z,1000.13
2017-09-24T07:28:00.889Z,1000.13
2017-09-24T07:29:11.160Z,1000.15
2017-09-24T07:30:21.440Z,1000.18
2017-09-24T07:31:31.403Z,1000.15
2017-09-24T07:32:41.689Z,1000.13
2017-09-24T07:33:51.967Z,1000.15
2017-09-24T07:35:01.920Z,1000.14
2017-09-24T07:36:11.550Z,1000.16
2017-09-24T07:37:21.502Z,1000.27
2017-09-24T07:38:31.779Z,1000.27
2017-09-24T07:39:42.061Z,1000.27
2017-09-24T07:40:52.019Z,1000.29
2017-09-24T07:42:01.975Z,1000.31
2017-09-24T07:43:12.252Z,1000.31
2017-09-24T07:44:22.526Z,1000.35
2017-09-24T07:45:32.487Z,1000.36
2017-09-24T07:46:42.119Z,1000.36
2017-09-24T07:47:52.389Z,1000.34
2017-09-24T07:49:02.028Z,1000.35
2017-09-24T07:50:12.304Z,1000.36
2017-09-24T07:51:22.260Z,1000.36
2017-09-24T07:52:32.535Z,1000.39
2017-09-24T07:53:42.497Z,1000.37
2017-09-24T07:54:52.773Z,1000.41
2017-09-24T07:56:02.725Z,1000.41
2017-09-24T07:57:12.680Z,1000.41
2017-09-24T07:58:22.954Z,1000.45
2017-09-24T07:59:33.235Z,1000.46
2017-09-24T08:00:43.513Z,1000.47
2017-09-24T08:01:53.789Z,1000.43
2017-09-24T08:03:02.781Z,1000.46
2017-09-24T08:04:13.064Z,1000.44
2017-09-24T08:05:23.340Z,1000.41
2017-09-24T08:06:33.620Z,1000.41
2017-09-24T08:07:43.575Z,1000.39
2017-09-24T08:08:53.207Z,1000.4
2017-09-24T08:10:03.483Z,1000.41
2017-09-24T08:11:13.115Z,1000.46
2017-09-24T08:12:23.397Z,1000.5
2017-09-24T08:13:33.350Z,1000.5
2017-09-24T08:14:42.982Z,1000.52
2017-09-24T08:15:52.948Z,1000.54
2017-09-24T08:17:02.934Z,1000.52
2017-09-24T08:18:12.889Z,1000.48
2017-09-24T08:19:22.558Z,1000.48
2017-09-24T08:20:32.836Z,1000.54
2017-09-24T08:21:42.794Z,1000.54
2017-09-24T08:22:51.782Z,1000.53
2017-09-24T08:24:01.740Z,1000.56
2017-09-24T08:25:11.371Z,1000.61
2017-09-24T08:26:21.004Z,1000.64
2017-09-24T08:27:31.284Z,1000.68
2017-09-24T08:28:41.563Z,1000.75
2017-09-24T08:29:51.853Z,1000.75
2017-09-24T08:31:01.810Z,1000.76
2017-09-24T08:32:12.094Z,1000.73
2017-09-24T08:33:22.374Z,1000.7
2017-09-24T08:34:32.325Z,1000.66
2017-09-24T08:35:42.287Z,1000.71
2017-09-24T08:36:52.570Z,1000.76
2017-09-24T08:38:02.523Z,1000.78
2017-09-24T08:39:12.476Z,1000.81
2017-09-24T08:40:22.428Z,1000.82
2017-09-24T08:41:32.384Z,1000.82
2017-09-24T08:42:42.662Z,1000.81
2017-09-24T08:43:52.626Z,1000.81
2017-09-24T08:45:02.582Z,1000.79
2017-09-24T08:46:12.543Z,1000.76
2017-09-24T08:47:22.502Z,1000.78
2017-09-24T08:48:32.772Z,1000.73
2017-09-24T08:49:43.056Z,1000.71
2017-09-24T08:50:53.341Z,1000.75
2017-09-24T08:52:03.635Z,1000.8
2017-09-24T08:53:13.589Z,1000.78
2017-09-24T08:54:23.548Z,1000.78
2017-09-24T08:55:33.827Z,1000.77
2017-09-24T08:56:44.105Z,1000.74
2017-09-24T08:57:54.062Z,1000.72
2017-09-24T08:59:04.012Z,1000.63
2017-09-24T09:00:13.641Z,1000.63
2017-09-24T09:01:23.609Z,1000.6
2017-09-24T09:02:33.569Z,1000.67
2017-09-24T09:03:43.847Z,1000.65
2017-09-24T09:04:53.814Z,1000.63
2017-09-24T09:06:03.448Z,1000.6
2017-09-24T09:07:13.082Z,1000.65
2017-09-24T09:08:23.037Z,1000.67
2017-09-24T09:09:32.664Z,1000.64
2017-09-24T09:10:42.948Z,1000.66
2017-09-24T09:11:53.225Z,1000.68
2017-09-24T09:13:03.181Z,1000.71
2017-09-24T09:14:13.139Z,1000.69
2017-09-24T09:15:23.416Z,1000.72
2017-09-24T09:16:33.371Z,1000.72
2017-09-24T09:17:43.650Z,1000.7
2017-09-24T09:18:53.609Z,1000.75
2017-09-24T09:20:03.562Z,1000.7
2017-09-24T09:21:13.520Z,1000.72
2017-09-24T09:22:23.797Z,1000.7
2017-09-24T09:23:34.077Z,1000.71
2017-09-24T09:24:44.034Z,1000.69
2017-09-24T09:25:54.310Z,1000.7
2017-09-24T09:27:04.270Z,1000.71
2017-09-24T09:28:14.556Z,1000.69
2017-09-24T09:29:24.841Z,1000.67
2017-09-24T09:30:34.799Z,1000.65
2017-09-24T09:31:44.756Z,1000.65
2017-09-24T09:32:55.037Z,1000.56
2017-09-24T09:34:05.313Z,1000.62
2017-09-24T09:35:15.267Z,1000.64
2017-09-24T09:36:25.539Z,1000.63
2017-09-24T09:37:35.490Z,1000.66
2017-09-24T09:38:45.447Z,1000.62
2017-09-24T09:39:55.726Z,1000.67
2017-09-24T09:41:05.683Z,1000.67
2017-09-24T09:42:15.639Z,1000.64
2017-09-24T09:43:25.597Z,1000.63
2017-09-24T09:44:35.554Z,1000.63
2017-09-24T09:45:45.514Z,1000.64
2017-09-24T09:46:55.787Z,1000.6
2017-09-24T09:48:05.756Z,1000.64
2017-09-24T09:49:16.031Z,1000.63
2017-09-24T09:50:26.312Z,1000.66
2017-09-24T09:51:35.633Z,1000.67
2017-09-24T09:52:45.592Z,1000.66
2017-09-24T09:53:54.900Z,1000.65
2017-09-24T09:55:04.533Z,1000.64
2017-09-24T09:56:14.814Z,1000.7
2017-09-24T09:57:25.093Z,1000.73
2017-09-24T09:58:35.372Z,1000.77
2017-09-24T09:59:45.333Z,1000.73
2017-09-24T10:00:55.618Z,1000.68
2017-09-24T10:02:05.894Z,1000.66
2017-09-24T10:03:16.174Z,1000.69
2017-09-24T10:04:26.136Z,1000.71
2017-09-24T10:05:36.423Z,1000.71
2017-09-24T10:06:46.718Z,1000.75
2017-09-24T10:07:56.690Z,1000.77
2017-09-24T10:09:06.649Z,1000.77
2017-09-24T10:10:16.925Z,1000.78
2017-09-24T10:11:26.913Z,1000.8
2017-09-24T10:12:37.191Z,1000.8
2017-09-24T10:13:47.476Z,1000.83
2017-09-24T10:14:57.431Z,1000.8
2017-09-24T10:16:07.386Z,1000.78
2017-09-24T10:17:17.345Z,1000.81
2017-09-24T10:18:27.299Z,1000.8
2017-09-24T10:19:36.932Z,1000.85
2017-09-24T10:20:47.210Z,1000.85
2017-09-24T10:21:57.491Z,1000.85
2017-09-24T10:23:07.455Z,1000.83
2017-09-24T10:24:17.733Z,1000.88
2017-09-24T10:25:27.685Z,1000.9
2017-09-24T10:26:37.638Z,1000.91
2017-09-24T10:27:47.911Z,1000.92
2017-09-24T10:28:58.189Z,1000.89
2017-09-24T10:30:08.470Z,1000.86
2017-09-24T10:31:18.427Z,1000.84
2017-09-24T10:32:28.703Z,1000.88
2017-09-24T10:33:38.658Z,1000.9
2017-09-24T10:34:48.973Z,1000.9
2017-09-24T10:35:58.929Z,1000.89
2017-09-24T10:37:08.562Z,1000.85
2017-09-24T10:38:18.517Z,1000.87
2017-09-24T10:39:28.157Z,1000.88
2017-09-24T10:40:38.112Z,1000.87
2017-09-24T10:41:48.069Z,1000.88
2017-09-24T10:42:58.365Z,1000.89
2017-09-24T10:44:08.648Z,1000.91
2017-09-24T10:45:18.605Z,1000.95
2017-09-24T10:46:28.559Z,1001
2017-09-24T10:47:38.523Z,1000.95
2017-09-24T10:48:48.476Z,1000.92
2017-09-24T10:49:58.431Z,1000.87
2017-09-24T10:51:08.068Z,1000.89
2017-09-24T10:52:18.019Z,1000.93
2017-09-24T10:53:27.660Z,1000.92
2017-09-24T10:54:37.608Z,1001.01
2017-09-24T10:55:47.564Z,1001
2017-09-24T10:56:57.524Z,1001
2017-09-24T10:58:07.806Z,1000.98
2017-09-24T10:59:18.089Z,1000.97
2017-09-24T11:00:27.717Z,1000.95
2017-09-24T11:01:37.674Z,1000.95
2017-09-24T11:02:47.947Z,1001
2017-09-24T11:03:57.902Z,1001.08
2017-09-24T11:05:07.859Z,1001.16
2017-09-24T11:06:17.818Z,1001.17
2017-09-24T11:07:27.774Z,1001.17
2017-09-24T11:08:37.727Z,1001.17
2017-09-24T11:09:48.043Z,1001.16
2017-09-24T11:10:57.680Z,1001.15
2017-09-24T11:12:07.963Z,1001.11
2017-09-24T11:13:17.597Z,1001.13
2017-09-24T11:14:27.554Z,1001.16
2017-09-24T11:15:37.507Z,1001.21
2017-09-24T11:16:47.787Z,1001.16
2017-09-24T11:17:57.749Z,1001.16
2017-09-24T11:19:07.705Z,1001.15
2017-09-24T11:20:17.669Z,1001.1
2017-09-24T11:21:27.962Z,1001.12
2017-09-24T11:22:37.914Z,1001.13
2017-09-24T11:23:47.870Z,1001.18
2017-09-24T11:24:58.153Z,1001.17
2017-09-24T11:26:08.108Z,1001.19
2017-09-24T11:27:17.747Z,1001.17
2017-09-24T11:28:27.700Z,1001.17
2017-09-24T11:29:38.017Z,1001.23
2017-09-24T11:30:47.971Z,1001.23
2017-09-24T11:31:58.251Z,1001.19
2017-09-24T11:33:08.208Z,1001.19
2017-09-24T11:34:18.164Z,1001.18
2017-09-24T11:35:28.133Z,1001.21
2017-09-24T11:36:38.408Z,1001.23
2017-09-24T11:37:47.719Z,1001.34
2017-09-24T11:38:57.996Z,1001.34
2017-09-24T11:40:07.965Z,1001.27
2017-09-24T11:41:17.923Z,1001.3
2017-09-24T11:42:27.570Z,1001.3
2017-09-24T11:43:37.853Z,1001.36
2017-09-24T11:44:47.486Z,1001.31
2017-09-24T11:45:57.777Z,1001.33
2017-09-24T11:47:07.738Z,1001.3
2017-09-24T11:48:17.367Z,1001.36
2017-09-24T11:49:27.328Z,1001.35
2017-09-24T11:50:37.606Z,1001.36
2017-09-24T11:51:47.898Z,1001.39
2017-09-24T11:52:57.849Z,1001.39
2017-09-24T11:54:07.811Z,1001.4
2017-09-24T11:55:18.095Z,1001.35
2017-09-24T11:56:27.730Z,1001.35
2017-09-24T11:57:37.682Z,1001.38
2017-09-24T11:58:47.645Z,1001.38
2017-09-24T11:59:57.931Z,1001.4
2017-09-24T12:01:08.209Z,1001.36
2017-09-24T12:02:18.486Z,1001.37
2017-09-24T12:03:28.766Z,1001.35
2017-09-24T12:04:39.052Z,1001.37
2017-09-24T12:05:49.010Z,1001.38
2017-09-24T12:06:58.648Z,1001.43
2017-09-24T12:08:08.280Z,1001.42
2017-09-24T12:09:18.560Z,1001.41
2017-09-24T12:10:28.848Z,1001.41
2017-09-24T12:11:38.815Z,1001.46
2017-09-24T12:12:48.768Z,1001.42
2017-09-24T12:13:58.403Z,1001.43
2017-09-24T12:15:08.039Z,1001.44
2017-09-24T12:16:17.029Z,1001.42
2017-09-24T12:17:26.982Z,1001.42
2017-09-24T12:18:37.260Z,1001.46
2017-09-24T12:19:47.535Z,1001.44
2017-09-24T12:20:57.493Z,1001.4
2017-09-24T12:22:07.448Z,1001.4
2017-09-24T12:23:17.410Z,1001.42
2017-09-24T12:24:27.364Z,1001.38
2017-09-24T12:25:37.641Z,1001.41
2017-09-24T12:26:47.598Z,1001.41
2017-09-24T12:27:57.881Z,1001.43
2017-09-24T12:29:07.837Z,1001.37
2017-09-24T12:30:18.120Z,1001.43
2017-09-24T12:31:27.757Z,1001.45
2017-09-24T12:32:38.048Z,1001.41
2017-09-24T12:33:48.008Z,1001.41
2017-09-24T12:34:58.283Z,1001.43
2017-09-24T12:36:07.912Z,1001.43
2017-09-24T12:37:18.189Z,1001.42
2017-09-24T12:38:28.477Z,1001.44
2017-09-24T12:39:38.469Z,1001.4
2017-09-24T12:40:48.104Z,1001.46
2017-09-24T12:41:58.065Z,1001.44
2017-09-24T12:43:07.380Z,1001.42
2017-09-24T12:44:17.333Z,1001.44
2017-09-24T12:45:27.607Z,1001.42
2017-09-24T12:46:37.574Z,1001.45
2017-09-24T12:47:47.531Z,1001.43
2017-09-24T12:48:57.809Z,1001.43
2017-09-24T12:50:07.769Z,1001.42
2017-09-24T12:51:18.044Z,1001.44
2017-09-24T12:52:28.354Z,1001.45
2017-09-24T12:53:37.993Z,1001.43
2017-09-24T12:54:48.272Z,1001.48
2017-09-24T12:55:57.910Z,1001.48
2017-09-24T12:57:07.885Z,1001.5
2017-09-24T12:58:17.515Z,1001.5
2017-09-24T12:59:27.146Z,1001.54
2017-09-24T13:00:37.428Z,1001.55
2017-09-24T13:01:47.062Z,1001.54
2017-09-24T13:02:57.023Z,1001.54
2017-09-24T13:04:07.297Z,1001.55
2017-09-24T13:05:16.931Z,1001.58
2017-09-24T13:06:26.568Z,1001.55
2017-09-24T13:07:36.524Z,1001.6
2017-09-24T13:08:46.165Z,1001.6
2017-09-24T13:09:56.129Z,1001.62
2017-09-24T13:11:05.762Z,1001.66
2017-09-24T13:12:16.046Z,1001.65
2017-09-24T13:13:26.325Z,1001.69
2017-09-24T13:14:36.601Z,1001.73
2017-09-24T13:15:46.876Z,1001.71
2017-09-24T13:16:56.840Z,1001.74
2017-09-24T13:18:06.471Z,1001.77
2017-09-24T13:19:16.429Z,1001.73
2017-09-24T13:20:26.705Z,1001.75
2017-09-24T13:21:37.016Z,1001.72
2017-09-24T13:22:46.976Z,1001.71
2017-09-24T13:23:56.609Z,1001.74
2017-09-24T13:25:06.885Z,1001.73
2017-09-24T13:26:16.848Z,1001.68
2017-09-24T13:27:26.804Z,1001.72
2017-09-24T13:28:37.086Z,1001.73
2017-09-24T13:29:47.042Z,1001.71
2017-09-24T13:30:57.320Z,1001.74
2017-09-24T13:32:07.273Z,1001.74
2017-09-24T13:33:17.550Z,1001.75
2017-09-24T13:34:27.511Z,1001.74
2017-09-24T13:35:37.788Z,1001.73
2017-09-24T13:36:48.079Z,1001.73
2017-09-24T13:37:58.367Z,1001.78
2017-09-24T13:39:08.004Z,1001.82
2017-09-24T13:40:17.960Z,1001.79
2017-09-24T13:41:28.243Z,1001.75
2017-09-24T13:42:38.198Z,1001.77
2017-09-24T13:43:47.831Z,1001.82
2017-09-24T13:44:58.105Z,1001.78
2017-09-24T13:46:08.389Z,1001.79
2017-09-24T13:47:18.061Z,1001.79
2017-09-24T13:48:28.022Z,1001.77
2017-09-24T13:49:38.013Z,1001.81
2017-09-24T13:50:47.968Z,1001.83
2017-09-24T13:51:58.270Z,1001.8
2017-09-24T13:53:08.232Z,1001.8
2017-09-24T13:54:18.515Z,1001.78
2017-09-24T13:55:28.794Z,1001.82
2017-09-24T13:56:39.078Z,1001.79
2017-09-24T13:57:49.047Z,1001.82
2017-09-24T13:58:59.352Z,1001.84
2017-09-24T14:00:09.638Z,1001.84
2017-09-24T14:01:19.918Z,1001.84
2017-09-24T14:02:29.877Z,1001.86
2017-09-24T14:03:39.510Z,1001.88
2017-09-24T14:04:49.786Z,1001.88
2017-09-24T14:06:00.065Z,1001.91
2017-09-24T14:07:09.058Z,1001.87
2017-09-24T14:08:19.333Z,1001.9
2017-09-24T14:09:29.289Z,1001.93
2017-09-24T14:10:39.567Z,1001.92
2017-09-24T14:11:49.846Z,1001.9
2017-09-24T14:13:00.123Z,1001.92
2017-09-24T14:14:10.403Z,1001.9
2017-09-24T14:15:20.363Z,1001.88
2017-09-24T14:16:29.993Z,1001.88
2017-09-24T14:17:39.950Z,1001.85
2017-09-24T14:18:49.590Z,1001.88
2017-09-24T14:19:59.228Z,1001.9
2017-09-24T14:21:09.185Z,1001.88
2017-09-24T14:22:18.815Z,1001.87
2017-09-24T14:23:28.458Z,1001.87
2017-09-24T14:24:38.096Z,1001.92